sensor_id;sensor_type;location;lat;lon;timestamp;pressure;altitude;pressure_sealevel;temperature;humidity
62634;BME280;48704;50.534;6.442;2023-05-21T00:00:34;95603.03;;;11.09;100.00
62634;BME280;48704;50.534;6.442;2023-05-21T00:02:59;95597.94;;;11.22;100.00
62634;BME280;48704;50.534;6.442;2023-05-21T00:05:25;95608.16;;;11.11;100.00
62634;BME280;48704;50.534;6.442;2023-05-21T00:07:50;95594.50;;;11.13;100.00
62634;BME280;48704;50.534;6.442;2023-05-21T00:10:17;95590.44;;;11.14;100.00
62634;BME280;48704;50.534;6.442;2023-05-21T00:12:43;95589.47;;;11.17;100.00
62634;BME280;48704;50.534;6.442;2023-05-21T00:15:08;95588.03;;;11.21;100.00
62634;BME280;48704;50.534;6.442;2023-05-21T00:17:34;95588.91;;;11.13;100.00
62634;BME280;48704;50.534;6.442;2023-05-21T00:20:01;95581.03;;;11.11;100.00
62634;BME280;48704;50.534;6.442;2023-05-21T00:22:29;95577.81;;;11.18;100.00
62634;BME280;48704;50.534;6.442;2023-05-21T00:24:54;95585.22;;;11.21;100.00
62634;BME280;48704;50.534;6.442;2023-05-21T00:27:20;95579.06;;;11.17;100.00
62634;BME280;48704;50.534;6.442;2023-05-21T00:29:45;95586.56;;;11.26;100.00
62634;BME280;48704;50.534;6.442;2023-05-21T00:32:10;95579.25;;;11.28;100.00
62634;BME280;48704;50.534;6.442;2023-05-21T00:34:35;95573.88;;;11.25;100.00
62634;BME280;48704;50.534;6.442;2023-05-21T00:37:01;95570.25;;;11.04;100.00
62634;BME280;48704;50.534;6.442;2023-05-21T00:39:26;95576.78;;;10.71;100.00
62634;BME280;48704;50.534;6.442;2023-05-21T00:41:52;95567.84;;;10.67;100.00
62634;BME280;48704;50.534;6.442;2023-05-21T00:44:18;95571.06;;;10.51;100.00
62634;BME280;48704;50.534;6.442;2023-05-21T00:46:44;95573.59;;;10.64;100.00
62634;BME280;48704;50.534;6.442;2023-05-21T00:49:12;95575.84;;;10.75;100.00
62634;BME280;48704;50.534;6.442;2023-05-21T00:51:39;95571.97;;;10.87;100.00
62634;BME280;48704;50.534;6.442;2023-05-21T00:54:04;95561.97;;;10.95;100.00
62634;BME280;48704;50.534;6.442;2023-05-21T00:56:29;95567.84;;;10.97;100.00
62634;BME280;48704;50.534;6.442;2023-05-21T00:58:55;95561.59;;;11.02;100.00
62634;BME280;48704;50.534;6.442;2023-05-21T01:01:21;95568.34;;;11.10;100.00
62634;BME280;48704;50.534;6.442;2023-05-21T01:03:51;95566.03;;;11.09;100.00
62634;BME280;48704;50.534;6.442;2023-05-21T01:06:16;95560.91;;;10.92;100.00
62634;BME280;48704;50.534;6.442;2023-05-21T01:08:41;95560.44;;;10.94;100.00
62634;BME280;48704;50.534;6.442;2023-05-21T01:11:08;95557.16;;;10.81;100.00
62634;BME280;48704;50.534;6.442;2023-05-21T01:13:37;95553.53;;;11.04;100.00
62634;BME280;48704;50.534;6.442;2023-05-21T01:16:03;95554.78;;;11.03;100.00
62634;BME280;48704;50.534;6.442;2023-05-21T01:18:31;95556.38;;;11.24;100.00
62634;BME280;48704;50.534;6.442;2023-05-21T01:20:59;95559.44;;;11.26;100.00
62634;BME280;48704;50.534;6.442;2023-05-21T01:23:24;95559.28;;;10.86;100.00
62634;BME280;48704;50.534;6.442;2023-05-21T01:25:50;95549.88;;;10.98;100.00
62634;BME280;48704;50.534;6.442;2023-05-21T01:28:15;95551.88;;;10.68;100.00
62634;BME280;48704;50.534;6.442;2023-05-21T01:30:41;95541.22;;;10.96;100.00
62634;BME280;48704;50.534;6.442;2023-05-21T01:33:25;95544.00;;;10.52;100.00
62634;BME280;48704;50.534;6.442;2023-05-21T01:35:59;95540.22;;;10.01;100.00
62634;BME280;48704;50.534;6.442;2023-05-21T01:38:47;95543.84;;;9.93;100.00
62634;BME280;48704;50.534;6.442;2023-05-21T01:41:18;95535.59;;;9.98;100.00
62634;BME280;48704;50.534;6.442;2023-05-21T01:43:45;95541.88;;;9.84;100.00
62634;BME280;48704;50.534;6.442;2023-05-21T01:46:13;95537.38;;;9.87;100.00
62634;BME280;48704;50.534;6.442;2023-05-21T01:48:40;95540.88;;;9.96;100.00
62634;BME280;48704;50.534;6.442;2023-05-21T01:51:06;95537.38;;;9.87;100.00
62634;BME280;48704;50.534;6.442;2023-05-21T01:53:31;95536.69;;;10.16;100.00
62634;BME280;48704;50.534;6.442;2023-05-21T01:55:57;95542.63;;;10.09;100.00
62634;BME280;48704;50.534;6.442;2023-05-21T01:58:23;95534.22;;;9.70;100.00
62634;BME280;48704;50.534;6.442;2023-05-21T02:00:49;95542.09;;;9.71;100.00
62634;BME280;48704;50.534;6.442;2023-05-21T02:03:18;95534.56;;;10.11;100.00
62634;BME280;48704;50.534;6.442;2023-05-21T02:05:44;95531.63;;;9.90;100.00
62634;BME280;48704;50.534;6.442;2023-05-21T02:08:09;95532.22;;;9.94;100.00
62634;BME280;48704;50.534;6.442;2023-05-21T02:10:35;95527.81;;;10.02;100.00
62634;BME280;48704;50.534;6.442;2023-05-21T02:13:00;95527.72;;;10.21;100.00
62634;BME280;48704;50.534;6.442;2023-05-21T02:15:26;95532.88;;;9.89;100.00
62634;BME280;48704;50.534;6.442;2023-05-21T02:17:51;95528.66;;;9.70;100.00
62634;BME280;48704;50.534;6.442;2023-05-21T02:20:17;95527.25;;;9.51;100.00
62634;BME280;48704;50.534;6.442;2023-05-21T02:22:45;95522.50;;;9.66;100.00
62634;BME280;48704;50.534;6.442;2023-05-21T02:25:12;95524.34;;;9.45;100.00
62634;BME280;48704;50.534;6.442;2023-05-21T02:27:38;95527.56;;;9.53;100.00
62634;BME280;48704;50.534;6.442;2023-05-21T02:30:09;95526.06;;;9.43;100.00
62634;BME280;48704;50.534;6.442;2023-05-21T02:32:35;95520.75;;;9.54;100.00
62634;BME280;48704;50.534;6.442;2023-05-21T02:35:01;95516.59;;;9.73;100.00
62634;BME280;48704;50.534;6.442;2023-05-21T02:37:27;95511.03;;;9.73;100.00
62634;BME280;48704;50.534;6.442;2023-05-21T02:39:54;95512.88;;;9.52;100.00
62634;BME280;48704;50.534;6.442;2023-05-21T02:42:20;95519.44;;;9.64;100.00
62634;BME280;48704;50.534;6.442;2023-05-21T02:44:46;95508.53;;;9.75;100.00
62634;BME280;48704;50.534;6.442;2023-05-21T02:47:11;95508.63;;;10.04;100.00
62634;BME280;48704;50.534;6.442;2023-05-21T02:49:36;95506.94;;;9.35;100.00
62634;BME280;48704;50.534;6.442;2023-05-21T02:52:02;95503.16;;;9.24;100.00
62634;BME280;48704;50.534;6.442;2023-05-21T02:54:28;95509.00;;;9.73;100.00
62634;BME280;48704;50.534;6.442;2023-05-21T02:56:53;95508.84;;;9.53;100.00
62634;BME280;48704;50.534;6.442;2023-05-21T02:59:18;95506.06;;;9.77;100.00
62634;BME280;48704;50.534;6.442;2023-05-21T03:01:43;95502.25;;;9.65;100.00
62634;BME280;48704;50.534;6.442;2023-05-21T03:04:09;95503.88;;;9.57;100.00
62634;BME280;48704;50.534;6.442;2023-05-21T03:06:34;95500.97;;;9.52;100.00
62634;BME280;48704;50.534;6.442;2023-05-21T03:09:01;95492.34;;;9.50;100.00
62634;BME280;48704;50.534;6.442;2023-05-21T03:11:26;95499.00;;;9.43;100.00
62634;BME280;48704;50.534;6.442;2023-05-21T03:13:52;95487.25;;;9.48;100.00
62634;BME280;48704;50.534;6.442;2023-05-21T03:16:17;95495.94;;;9.65;100.00
62634;BME280;48704;50.534;6.442;2023-05-21T03:18:42;95492.44;;;9.79;100.00
62634;BME280;48704;50.534;6.442;2023-05-21T03:21:09;95494.38;;;9.40;100.00
62634;BME280;48704;50.534;6.442;2023-05-21T03:23:37;95496.59;;;9.60;100.00
62634;BME280;48704;50.534;6.442;2023-05-21T03:26:02;95488.31;;;9.51;100.00
62634;BME280;48704;50.534;6.442;2023-05-21T03:28:28;95488.59;;;9.53;100.00
62634;BME280;48704;50.534;6.442;2023-05-21T03:30:54;95496.31;;;9.58;100.00
62634;BME280;48704;50.534;6.442;2023-05-21T03:33:20;95496.44;;;9.63;100.00
62634;BME280;48704;50.534;6.442;2023-05-21T03:35:49;95490.25;;;9.83;100.00
62634;BME280;48704;50.534;6.442;2023-05-21T03:38:14;95506.41;;;9.70;100.00
62634;BME280;48704;50.534;6.442;2023-05-21T03:40:40;95505.41;;;9.82;100.00
62634;BME280;48704;50.534;6.442;2023-05-21T03:43:05;95507.66;;;10.07;100.00
62634;BME280;48704;50.534;6.442;2023-05-21T03:45:30;95514.34;;;9.86;100.00
62634;BME280;48704;50.534;6.442;2023-05-21T03:47:56;95518.72;;;9.78;100.00
62634;BME280;48704;50.534;6.442;2023-05-21T03:50:21;95516.59;;;9.73;100.00
62634;BME280;48704;50.534;6.442;2023-05-21T03:52:46;95517.06;;;9.48;100.00
62634;BME280;48704;50.534;6.442;2023-05-21T03:55:12;95511.53;;;9.38;100.00
62634;BME280;48704;50.534;6.442;2023-05-21T03:57:37;95514.44;;;9.68;100.00
62634;BME280;48704;50.534;6.442;2023-05-21T04:00:02;95508.16;;;9.34;100.00
62634;BME280;48704;50.534;6.442;2023-05-21T04:02:29;95503.38;;;9.35;100.00
62634;BME280;48704;50.534;6.442;2023-05-21T04:04:54;95511.97;;;9.22;100.00
62634;BME280;48704;50.534;6.442;2023-05-21T04:07:20;95507.28;;;9.28;100.00
62634;BME280;48704;50.534;6.442;2023-05-21T04:09:46;95515.09;;;9.39;100.00
62634;BME280;48704;50.534;6.442;2023-05-21T04:12:11;95511.50;;;9.48;100.00
62634;BME280;48704;50.534;6.442;2023-05-21T04:14:37;95507.56;;;9.30;100.00
62634;BME280;48704;50.534;6.442;2023-05-21T04:17:02;95508.03;;;9.29;100.00
62634;BME280;48704;50.534;6.442;2023-05-21T04:19:31;95507.34;;;9.43;100.00
62634;BME280;48704;50.534;6.442;2023-05-21T04:21:56;95511.25;;;9.36;100.00
62634;BME280;48704;50.534;6.442;2023-05-21T04:24:22;95518.59;;;9.49;100.00
62634;BME280;48704;50.534;6.442;2023-05-21T04:26:48;95517.31;;;9.59;100.00
62634;BME280;48704;50.534;6.442;2023-05-21T04:29:14;95514.84;;;9.61;100.00
62634;BME280;48704;50.534;6.442;2023-05-21T04:31:42;95516.84;;;9.60;100.00
62634;BME280;48704;50.534;6.442;2023-05-21T04:34:08;95516.56;;;9.25;100.00
62634;BME280;48704;50.534;6.442;2023-05-21T04:36:33;95513.22;;;9.45;100.00
62634;BME280;48704;50.534;6.442;2023-05-21T04:38:59;95514.38;;;9.29;100.00
62634;BME280;48704;50.534;6.442;2023-05-21T04:41:24;95520.19;;;9.41;100.00
62634;BME280;48704;50.534;6.442;2023-05-21T04:43:49;95514.94;;;9.43;100.00
62634;BME280;48704;50.534;6.442;2023-05-21T04:46:20;95515.53;;;9.47;100.00
62634;BME280;48704;50.534;6.442;2023-05-21T04:48:52;95509.88;;;9.65;100.00
62634;BME280;48704;50.534;6.442;2023-05-21T04:51:21;95514.09;;;9.75;100.00
62634;BME280;48704;50.534;6.442;2023-05-21T04:53:50;95513.91;;;10.02;100.00
62634;BME280;48704;50.534;6.442;2023-05-21T04:56:16;95500.50;;;10.16;100.00
62634;BME280;48704;50.534;6.442;2023-05-21T04:58:42;95505.75;;;9.99;100.00
62634;BME280;48704;50.534;6.442;2023-05-21T05:01:08;95506.59;;;10.29;100.00
62634;BME280;48704;50.534;6.442;2023-05-21T05:03:33;95501.50;;;10.03;100.00
62634;BME280;48704;50.534;6.442;2023-05-21T05:05:58;95507.78;;;10.37;100.00
62634;BME280;48704;50.534;6.442;2023-05-21T05:08:24;95512.47;;;10.07;100.00
62634;BME280;48704;50.534;6.442;2023-05-21T05:10:50;95518.06;;;9.83;100.00
62634;BME280;48704;50.534;6.442;2023-05-21T05:13:15;95511.03;;;9.97;100.00
62634;BME280;48704;50.534;6.442;2023-05-21T05:15:40;95508.81;;;10.25;100.00
62634;BME280;48704;50.534;6.442;2023-05-21T05:18:06;95506.22;;;10.36;100.00
62634;BME280;48704;50.534;6.442;2023-05-21T05:20:32;95507.84;;;10.04;100.00
62634;BME280;48704;50.534;6.442;2023-05-21T05:22:57;95516.03;;;10.31;100.00
62634;BME280;48704;50.534;6.442;2023-05-21T05:25:23;95512.16;;;10.05;100.00
62634;BME280;48704;50.534;6.442;2023-05-21T05:27:48;95499.09;;;10.20;100.00
62634;BME280;48704;50.534;6.442;2023-05-21T05:30:13;95509.03;;;10.65;100.00
62634;BME280;48704;50.534;6.442;2023-05-21T05:32:39;95500.47;;;10.84;100.00
62634;BME280;48704;50.534;6.442;2023-05-21T05:35:04;95506.22;;;10.36;100.00
62634;BME280;48704;50.534;6.442;2023-05-21T05:37:30;95505.28;;;10.54;100.00
62634;BME280;48704;50.534;6.442;2023-05-21T05:39:57;95504.69;;;10.50;100.00
62634;BME280;48704;50.534;6.442;2023-05-21T05:42:22;95513.53;;;10.48;100.00
62634;BME280;48704;50.534;6.442;2023-05-21T05:44:48;95506.72;;;10.11;100.00
62634;BME280;48704;50.534;6.442;2023-05-21T05:47:13;95514.91;;;10.67;100.00
62634;BME280;48704;50.534;6.442;2023-05-21T05:49:38;95513.13;;;10.26;100.00
62634;BME280;48704;50.534;6.442;2023-05-21T05:52:04;95506.25;;;10.65;100.00
62634;BME280;48704;50.534;6.442;2023-05-21T05:54:30;95502.97;;;10.82;100.00
62634;BME280;48704;50.534;6.442;2023-05-21T05:56:56;95507.94;;;11.07;100.00
62634;BME280;48704;50.534;6.442;2023-05-21T05:59:21;95496.72;;;10.87;100.00
62634;BME280;48704;50.534;6.442;2023-05-21T06:01:46;95497.38;;;11.11;100.00
62634;BME280;48704;50.534;6.442;2023-05-21T06:04:12;95507.28;;;11.47;100.00
62634;BME280;48704;50.534;6.442;2023-05-21T06:06:37;95498.06;;;11.61;100.00
62634;BME280;48704;50.534;6.442;2023-05-21T06:09:02;95503.09;;;11.22;100.00
62634;BME280;48704;50.534;6.442;2023-05-21T06:11:28;95503.06;;;11.37;100.00
62634;BME280;48704;50.534;6.442;2023-05-21T06:13:53;95502.69;;;11.29;100.00
62634;BME280;48704;50.534;6.442;2023-05-21T06:16:18;95502.78;;;11.35;100.00
62634;BME280;48704;50.534;6.442;2023-05-21T06:18:43;95506.53;;;11.67;100.00
62634;BME280;48704;50.534;6.442;2023-05-21T06:21:09;95498.34;;;11.63;100.00
62634;BME280;48704;50.534;6.442;2023-05-21T06:23:34;95505.03;;;11.86;100.00
62634;BME280;48704;50.534;6.442;2023-05-21T06:26:02;95497.75;;;11.94;100.00
62634;BME280;48704;50.534;6.442;2023-05-21T06:28:27;95507.78;;;12.27;100.00
62634;BME280;48704;50.534;6.442;2023-05-21T06:30:52;95498.88;;;12.23;100.00
62634;BME280;48704;50.534;6.442;2023-05-21T06:33:18;95503.34;;;12.15;100.00
62634;BME280;48704;50.534;6.442;2023-05-21T06:35:43;95504.03;;;11.89;100.00
62634;BME280;48704;50.534;6.442;2023-05-21T06:38:08;95501.59;;;11.97;100.00
62634;BME280;48704;50.534;6.442;2023-05-21T06:40:34;95509.59;;;12.30;100.00
62634;BME280;48704;50.534;6.442;2023-05-21T06:42:59;95508.06;;;12.29;100.00
62634;BME280;48704;50.534;6.442;2023-05-21T06:45:24;95509.84;;;12.52;100.00
62634;BME280;48704;50.534;6.442;2023-05-21T06:47:50;95518.28;;;12.84;100.00
62634;BME280;48704;50.534;6.442;2023-05-21T06:50:15;95506.41;;;12.17;100.00
62634;BME280;48704;50.534;6.442;2023-05-21T06:52:42;95515.72;;;12.54;100.00
62634;BME280;48704;50.534;6.442;2023-05-21T06:55:07;95508.41;;;12.62;100.00
62634;BME280;48704;50.534;6.442;2023-05-21T06:57:32;95511.81;;;12.72;100.00
62634;BME280;48704;50.534;6.442;2023-05-21T06:59:58;95509.56;;;12.50;100.00
62634;BME280;48704;50.534;6.442;2023-05-21T07:02:23;95516.44;;;13.06;100.00
62634;BME280;48704;50.534;6.442;2023-05-21T07:04:48;95522.53;;;13.31;100.00
62634;BME280;48704;50.534;6.442;2023-05-21T07:07:14;95521.44;;;13.60;100.00
62634;BME280;48704;50.534;6.442;2023-05-21T07:09:39;95517.97;;;13.76;100.00
62634;BME280;48704;50.534;6.442;2023-05-21T07:12:05;95520.09;;;13.92;100.00
62634;BME280;48704;50.534;6.442;2023-05-21T07:14:30;95521.41;;;13.97;100.00
62634;BME280;48704;50.534;6.442;2023-05-21T07:16:56;95526.22;;;13.96;100.00
62634;BME280;48704;50.534;6.442;2023-05-21T07:19:21;95529.03;;;13.96;100.00
62634;BME280;48704;50.534;6.442;2023-05-21T07:21:46;95531.44;;;14.26;100.00
62634;BME280;48704;50.534;6.442;2023-05-21T07:24:11;95528.22;;;13.90;100.00
62634;BME280;48704;50.534;6.442;2023-05-21T07:26:37;95528.53;;;14.57;100.00
62634;BME280;48704;50.534;6.442;2023-05-21T07:29:02;95527.47;;;14.49;100.00
62634;BME280;48704;50.534;6.442;2023-05-21T07:31:27;95529.59;;;14.71;100.00
62634;BME280;48704;50.534;6.442;2023-05-21T07:33:53;95521.47;;;15.01;100.00
62634;BME280;48704;50.534;6.442;2023-05-21T07:36:18;95518.66;;;14.95;100.00
62634;BME280;48704;50.534;6.442;2023-05-21T07:38:43;95526.03;;;14.93;100.00
62634;BME280;48704;50.534;6.442;2023-05-21T07:41:09;95519.94;;;15.05;100.00
62634;BME280;48704;50.534;6.442;2023-05-21T07:43:35;95520.28;;;14.37;100.00
62634;BME280;48704;50.534;6.442;2023-05-21T07:46:00;95518.88;;;14.86;100.00
62634;BME280;48704;50.534;6.442;2023-05-21T07:48:26;95526.31;;;14.84;100.00
62634;BME280;48704;50.534;6.442;2023-05-21T07:50:51;95518.16;;;15.42;100.00
62634;BME280;48704;50.534;6.442;2023-05-21T07:53:17;95523.75;;;15.47;100.00
62634;BME280;48704;50.534;6.442;2023-05-21T07:55:43;95525.53;;;15.45;100.00
62634;BME280;48704;50.534;6.442;2023-05-21T07:58:15;95521.72;;;15.53;100.00
62634;BME280;48704;50.534;6.442;2023-05-21T08:00:42;95526.81;;;15.44;100.00
62634;BME280;48704;50.534;6.442;2023-05-21T08:03:09;95529.09;;;15.73;100.00
62634;BME280;48704;50.534;6.442;2023-05-21T08:05:36;95524.78;;;15.55;100.00
62634;BME280;48704;50.534;6.442;2023-05-21T08:08:01;95522.66;;;16.00;100.00
62634;BME280;48704;50.534;6.442;2023-05-21T08:10:26;95521.97;;;15.44;100.00
62634;BME280;48704;50.534;6.442;2023-05-21T08:12:52;95521.97;;;15.50;100.00
62634;BME280;48704;50.534;6.442;2023-05-21T08:15:17;95520.88;;;15.97;100.00
62634;BME280;48704;50.534;6.442;2023-05-21T08:17:42;95527.97;;;16.21;100.00
62634;BME280;48704;50.534;6.442;2023-05-21T08:20:08;95526.69;;;16.22;100.00
62634;BME280;48704;50.534;6.442;2023-05-21T08:22:33;95530.38;;;16.52;100.00
62634;BME280;48704;50.534;6.442;2023-05-21T08:24:58;95526.16;;;16.81;100.00
62634;BME280;48704;50.534;6.442;2023-05-21T08:27:24;95527.97;;;16.73;100.00
62634;BME280;48704;50.534;6.442;2023-05-21T08:29:49;95519.44;;;16.90;100.00
62634;BME280;48704;50.534;6.442;2023-05-21T08:32:14;95521.25;;;16.87;100.00
62634;BME280;48704;50.534;6.442;2023-05-21T08:34:39;95515.94;;;16.78;100.00
62634;BME280;48704;50.534;6.442;2023-05-21T08:37:05;95513.78;;;17.31;100.00
62634;BME280;48704;50.534;6.442;2023-05-21T08:39:30;95522.75;;;17.29;100.00
62634;BME280;48704;50.534;6.442;2023-05-21T08:42:03;95517.75;;;17.77;100.00
62634;BME280;48704;50.534;6.442;2023-05-21T08:44:32;95528.56;;;16.60;100.00
62634;BME280;48704;50.534;6.442;2023-05-21T08:46:58;95525.00;;;17.36;100.00
62634;BME280;48704;50.534;6.442;2023-05-21T08:49:25;95523.25;;;17.88;100.00
62634;BME280;48704;50.534;6.442;2023-05-21T08:51:54;95523.59;;;17.49;100.00
62634;BME280;48704;50.534;6.442;2023-05-21T08:54:21;95524.72;;;17.94;100.00
62634;BME280;48704;50.534;6.442;2023-05-21T08:56:46;95519.75;;;18.49;100.00
62634;BME280;48704;50.534;6.442;2023-05-21T08:59:14;95520.91;;;17.62;100.00
62634;BME280;48704;50.534;6.442;2023-05-21T09:01:41;95524.56;;;18.54;100.00
62634;BME280;48704;50.534;6.442;2023-05-21T09:04:07;95519.16;;;18.13;100.00
62634;BME280;48704;50.534;6.442;2023-05-21T09:06:33;95515.81;;;18.15;100.00
62634;BME280;48704;50.534;6.442;2023-05-21T09:09:04;95510.97;;;17.85;100.00
62634;BME280;48704;50.534;6.442;2023-05-21T09:11:31;95511.34;;;18.00;100.00
62634;BME280;48704;50.534;6.442;2023-05-21T09:13:57;95512.72;;;17.64;100.00
62634;BME280;48704;50.534;6.442;2023-05-21T09:16:24;95521.56;;;17.79;100.00
62634;BME280;48704;50.534;6.442;2023-05-21T09:18:49;95518.13;;;17.86;100.00
62634;BME280;48704;50.534;6.442;2023-05-21T09:21:28;95506.00;;;17.97;100.00
62634;BME280;48704;50.534;6.442;2023-05-21T09:23:59;95511.28;;;18.49;100.00
62634;BME280;48704;50.534;6.442;2023-05-21T09:26:25;95502.00;;;18.73;100.00
62634;BME280;48704;50.534;6.442;2023-05-21T09:28:51;95508.16;;;19.09;100.00
62634;BME280;48704;50.534;6.442;2023-05-21T09:31:22;95498.81;;;19.46;100.00
62634;BME280;48704;50.534;6.442;2023-05-21T09:33:48;95507.06;;;19.44;100.00
62634;BME280;48704;50.534;6.442;2023-05-21T09:36:16;95499.31;;;19.31;100.00
62634;BME280;48704;50.534;6.442;2023-05-21T09:38:43;95501.84;;;18.65;100.00
62634;BME280;48704;50.534;6.442;2023-05-21T09:41:09;95505.34;;;18.72;100.00
62634;BME280;48704;50.534;6.442;2023-05-21T09:43:35;95497.94;;;18.07;100.00
62634;BME280;48704;50.534;6.442;2023-05-21T09:46:00;95495.50;;;17.73;100.00
62634;BME280;48704;50.534;6.442;2023-05-21T09:53:52;95482.09;;;18.22;100.00
62634;BME280;48704;50.534;6.442;2023-05-21T09:56:22;95488.78;;;18.00;100.00
62634;BME280;48704;50.534;6.442;2023-05-21T09:58:53;95488.09;;;17.70;100.00
62634;BME280;48704;50.534;6.442;2023-05-21T10:01:20;95489.38;;;17.93;100.00
62634;BME280;48704;50.534;6.442;2023-05-21T10:03:49;95492.22;;;18.93;100.00
62634;BME280;48704;50.534;6.442;2023-05-21T10:06:18;95486.41;;;19.04;100.00
62634;BME280;48704;50.534;6.442;2023-05-21T10:08:47;95493.84;;;18.26;100.00
62634;BME280;48704;50.534;6.442;2023-05-21T10:11:13;95485.34;;;18.51;100.00
62634;BME280;48704;50.534;6.442;2023-05-21T10:13:44;95485.13;;;19.50;100.00
62634;BME280;48704;50.534;6.442;2023-05-21T10:16:11;95480.53;;;20.06;100.00
62634;BME280;48704;50.534;6.442;2023-05-21T10:18:37;95470.09;;;20.14;96.20
62634;BME280;48704;50.534;6.442;2023-05-21T10:21:05;95474.25;;;19.99;100.00
62634;BME280;48704;50.534;6.442;2023-05-21T10:23:33;95479.03;;;20.18;95.84
62634;BME280;48704;50.534;6.442;2023-05-21T10:26:00;95473.13;;;20.42;99.38
62634;BME280;48704;50.534;6.442;2023-05-21T10:28:27;95467.34;;;20.61;98.06
62634;BME280;48704;50.534;6.442;2023-05-21T10:30:53;95467.69;;;20.57;93.09
62634;BME280;48704;50.534;6.442;2023-05-21T10:33:19;95467.94;;;20.80;94.20
62634;BME280;48704;50.534;6.442;2023-05-21T10:35:48;95462.59;;;20.16;98.63
62634;BME280;48704;50.534;6.442;2023-05-21T10:38:17;95464.88;;;20.44;96.00
62634;BME280;48704;50.534;6.442;2023-05-21T10:40:43;95462.09;;;20.99;93.10
62634;BME280;48704;50.534;6.442;2023-05-21T10:43:37;95454.47;;;21.69;88.46
62634;BME280;48704;50.534;6.442;2023-05-21T10:49:10;95451.81;;;22.21;84.05
62634;BME280;48704;50.534;6.442;2023-05-21T10:51:56;95449.84;;;23.03;82.72
62634;BME280;48704;50.534;6.442;2023-05-21T10:54:49;95448.38;;;23.17;84.53
62634;BME280;48704;50.534;6.442;2023-05-21T10:57:45;95443.47;;;23.25;78.71
62634;BME280;48704;50.534;6.442;2023-05-21T11:00:16;95437.75;;;23.10;79.04
62634;BME280;48704;50.534;6.442;2023-05-21T11:02:42;95436.69;;;23.74;77.05
62634;BME280;48704;50.534;6.442;2023-05-21T11:05:09;95433.94;;;24.22;72.30
62634;BME280;48704;50.534;6.442;2023-05-21T11:07:56;95442.56;;;23.91;76.09
62634;BME280;48704;50.534;6.442;2023-05-21T11:10:37;95435.16;;;23.50;75.22
62634;BME280;48704;50.534;6.442;2023-05-21T11:13:13;95434.72;;;24.30;70.78
62634;BME280;48704;50.534;6.442;2023-05-21T11:16:14;95435.56;;;23.62;74.05
62634;BME280;48704;50.534;6.442;2023-05-21T11:21:16;95439.69;;;23.23;73.92
62634;BME280;48704;50.534;6.442;2023-05-21T11:26:29;95435.97;;;21.48;90.56
62634;BME280;48704;50.534;6.442;2023-05-21T11:31:31;95445.00;;;22.60;82.20
62634;BME280;48704;50.534;6.442;2023-05-21T11:34:18;95440.25;;;23.52;77.41
62634;BME280;48704;50.534;6.442;2023-05-21T11:36:46;95433.16;;;22.05;85.30
62634;BME280;48704;50.534;6.442;2023-05-21T11:39:18;95434.78;;;22.64;83.41
62634;BME280;48704;50.534;6.442;2023-05-21T11:41:59;95423.94;;;21.83;85.15
62634;BME280;48704;50.534;6.442;2023-05-21T11:44:45;95428.91;;;22.62;87.84
62634;BME280;48704;50.534;6.442;2023-05-21T11:47:15;95436.28;;;24.08;76.33
62634;BME280;48704;50.534;6.442;2023-05-21T11:49:42;95435.16;;;23.88;74.69
62634;BME280;48704;50.534;6.442;2023-05-21T11:52:09;95441.03;;;23.90;73.69
62634;BME280;48704;50.534;6.442;2023-05-21T11:54:45;95435.56;;;22.29;79.12
62634;BME280;48704;50.534;6.442;2023-05-21T11:57:13;95444.63;;;22.71;79.25
62634;BME280;48704;50.534;6.442;2023-05-21T11:59:45;95435.63;;;22.44;82.87
62634;BME280;48704;50.534;6.442;2023-05-21T12:02:15;95437.41;;;23.44;75.26
62634;BME280;48704;50.534;6.442;2023-05-21T12:04:41;95444.63;;;23.45;74.34
62634;BME280;48704;50.534;6.442;2023-05-21T12:07:10;95440.38;;;22.49;79.57
62634;BME280;48704;50.534;6.442;2023-05-21T12:09:41;95439.13;;;24.00;74.39
62634;BME280;48704;50.534;6.442;2023-05-21T12:12:07;95439.44;;;22.47;81.29
62634;BME280;48704;50.534;6.442;2023-05-21T12:14:34;95444.47;;;22.77;79.10
62634;BME280;48704;50.534;6.442;2023-05-21T12:16:59;95441.59;;;23.43;78.09
62634;BME280;48704;50.534;6.442;2023-05-21T12:19:24;95444.63;;;24.06;74.38
62634;BME280;48704;50.534;6.442;2023-05-21T12:21:50;95445.19;;;23.44;75.64
62634;BME280;48704;50.534;6.442;2023-05-21T12:24:15;95450.69;;;23.26;74.99
62634;BME280;48704;50.534;6.442;2023-05-21T12:26:42;95450.31;;;23.98;76.01
62634;BME280;48704;50.534;6.442;2023-05-21T12:29:10;95447.50;;;23.68;72.31
62634;BME280;48704;50.534;6.442;2023-05-21T12:31:46;95456.97;;;23.86;73.23
62634;BME280;48704;50.534;6.442;2023-05-21T12:34:13;95453.28;;;24.46;69.32
62634;BME280;48704;50.534;6.442;2023-05-21T12:36:41;95443.69;;;24.04;73.37
62634;BME280;48704;50.534;6.442;2023-05-21T12:39:10;95455.44;;;23.92;75.04
62634;BME280;48704;50.534;6.442;2023-05-21T12:41:36;95446.84;;;24.15;73.79
62634;BME280;48704;50.534;6.442;2023-05-21T12:44:01;95450.97;;;24.52;71.73
62634;BME280;48704;50.534;6.442;2023-05-21T12:46:26;95452.88;;;24.90;69.82
62634;BME280;48704;50.534;6.442;2023-05-21T12:48:52;95447.50;;;24.69;69.09
62634;BME280;48704;50.534;6.442;2023-05-21T12:51:19;95445.00;;;24.03;71.96
62634;BME280;48704;50.534;6.442;2023-05-21T12:53:45;95443.63;;;23.12;73.53
62634;BME280;48704;50.534;6.442;2023-05-21T12:56:12;95440.41;;;23.08;76.47
62634;BME280;48704;50.534;6.442;2023-05-21T12:58:38;95442.53;;;23.46;74.94
62634;BME280;48704;50.534;6.442;2023-05-21T13:01:08;95431.88;;;24.15;72.10
62634;BME280;48704;50.534;6.442;2023-05-21T13:03:34;95437.78;;;23.41;75.85
62634;BME280;48704;50.534;6.442;2023-05-21T13:06:00;95434.81;;;24.55;75.38
62634;BME280;48704;50.534;6.442;2023-05-21T13:08:26;95437.22;;;24.74;71.19
62634;BME280;48704;50.534;6.442;2023-05-21T13:10:51;95432.50;;;25.09;75.19